Time;durP1;ratioP1;P1;durP2;ratioP2;P2;SDS_P1;SDS_P2;PMS_P1;PMS_P2;Temp;Humidity;BMP_temperature;BMP_pressure;BME280_temperature;BME280_humidity;BME280_pressure;Samples;Min_cycle;Max_cycle;Signal;HPM_P1;HPM_P2
2022/10/21 00:02:03;;;;;;;;;;;;;;;;;;5082925;28;20200;-85
2022/10/21 00:04:30;;;;;;;;;;;;;;;;;;5083595;28;19913;-85
2022/10/21 00:06:55;;;;;;;;;;;;;;;;;;5072964;28;19917;-83
2022/10/21 00:09:20;;;;;;;;;;;;;;;;;;5082231;28;19940;-83
2022/10/21 00:11:46;;;;;;;;;;;;;;;;;;5077570;28;19916;-83
2022/10/21 00:14:11;;;;;;;;;;;;;;;;;;5060596;28;19930;-85
2022/10/21 00:16:36;;;;;;;;;;;;;;;;;;5080368;28;19931;-81
2022/10/21 00:19:01;;;;;;;;;;;;;;;;;;5080751;28;19939;-81
2022/10/21 00:21:27;;;;;;;;;;;;;;;;;;5080531;28;19918;-83
2022/10/21 00:23:52;;;;;;;;;;;;;;;;;;5071150;28;19918;-83
2022/10/21 00:26:17;;;;;;;;;;;;;;;;;;5078855;28;19927;-84
2022/10/21 00:28:43;;;;;;;;;;;;;;;;;;5081901;28;19912;-85
2022/10/21 00:31:09;;;;;;;;;;;;;;;;;;5055040;28;19921;-84
2022/10/21 00:33:35;;;;;;;;;;;;;;;;;;5077232;28;19920;-84
2022/10/21 00:36:04;;;;;;;;;;;;;;;;;;5083997;28;19912;-85
2022/10/21 00:38:30;;;;;;;;;;;;;;;;;;5080391;28;19920;-85
2022/10/21 00:40:55;;;;;;;;;;;;;;;;;;5080366;28;19955;-85
2022/10/21 00:43:21;;;;;;;;;;;;;;;;;;5080658;28;19920;-85
2022/10/21 00:45:49;;;;;;;;;;;;;;;;;;5083380;28;19908;-84
2022/10/21 00:48:43;;;;;;;;;;;;;;;;;;5081661;28;19920;-85
2022/10/21 00:51:10;;;;;;;;;;;;;;;;;;5051828;28;19913;-85
2022/10/21 00:53:36;;;;;;;;;;;;;;;;;;5067060;28;19913;-85
2022/10/21 00:56:04;;;;;;;;;;;;;;;;;;5076152;28;20274;-84
2022/10/21 00:58:30;;;;;;;;;;;;;;;;;;5091172;28;19986;-86
2022/10/21 01:00:57;;;;;;;;;;;;;;;;;;5071939;28;20315;-86
2022/10/21 01:03:23;;;;;;;;;;;;;;;;;;5076932;28;19912;-86
2022/10/21 01:05:48;;;;;;;;;;;;;;;;;;5091901;28;19934;-86
2022/10/21 01:08:14;;;;;;;;;;;;;;;;;;5078667;28;19920;-85
2022/10/21 01:10:39;;;;;;;;;;;;;;;;;;5081393;28;19917;-84
2022/10/21 01:13:31;;;;;;;;;;;;;;;;;;5080677;28;19978;-85
2022/10/21 01:15:56;;;;;;;;;;;;;;;;;;5077933;28;19962;-86
2022/10/21 01:18:21;;;;;;;;;;;;;;;;;;5082206;28;20123;-85
2022/10/21 01:20:46;;;;;;;;;;;;;;;;;;5082217;28;20033;-84
2022/10/21 01:23:25;;;;;;;;;;;;;;;;;;5083882;28;20306;-84
2022/10/21 01:26:20;;;;;;;;;;;;;;;;;;5073277;28;19912;-81
2022/10/21 01:28:55;;;;;;;;;;;;;;;;;;5035827;28;19925;-84
2022/10/21 01:31:27;;;;;;;;;;;;;;;;;;5073984;28;19912;-86
2022/10/21 01:34:10;;;;;;;;;;;;;;;;;;5074008;28;19921;-86
2022/10/21 01:36:49;;;;;;;;;;;;;;;;;;5072894;28;20259;-86
2022/10/21 01:39:25;;;;;;;;;;;;;;;;;;5053908;28;19939;-87
2022/10/21 01:41:54;;;;;;;;;;;;;;;;;;5078154;28;19917;-87
2022/10/21 01:44:19;;;;;;;;;;;;;;;;;;5061022;28;19912;-87
2022/10/21 01:46:48;;;;;;;;;;;;;;;;;;5078120;28;20231;-86
2022/10/21 01:49:35;;;;;;;;;;;;;;;;;;5077099;28;19944;-87
2022/10/21 01:52:01;;;;;;;;;;;;;;;;;;5077885;28;19925;-89
2022/10/21 01:54:32;;;;;;;;;;;;;;;;;;5078137;28;19953;-86
2022/10/21 01:56:58;;;;;;;;;;;;;;;;;;5078762;28;19927;-85
2022/10/21 01:59:25;;;;;;;;;;;;;;;;;;5058509;28;19943;-91
2022/10/21 02:01:51;;;;;;;;;;;;;;;;;;5058295;28;19916;-90
2022/10/21 02:04:17;;;;;;;;;;;;;;;;;;5083151;28;20211;-92
2022/10/21 02:06:42;;;;;;;;;;;;;;;;;;5078447;28;19951;-88
2022/10/21 02:09:08;;;;;;;;;;;;;;;;;;5057416;28;19913;-93
2022/10/21 02:11:34;;;;;;;;;;;;;;;;;;5066747;28;19936;-96
2022/10/21 02:14:07;;;;;;;;;;;;;;;;;;5090069;28;20196;-96
2022/10/21 02:16:35;;;;;;;;;;;;;;;;;;5087719;28;19923;-96
2022/10/21 02:19:00;;;;;;;;;;;;;;;;;;5085485;28;19917;-80
2022/10/21 02:21:27;;;;;;;;;;;;;;;;;;5076713;28;19935;-94
2022/10/21 02:23:56;;;;;;;;;;;;;;;;;;5060683;28;19912;-95
2022/10/21 02:26:22;;;;;;;;;;;;;;;;;;5094135;28;19905;-79
2022/10/21 02:29:39;;;;;;;;;;;;;;;;;;5098949;28;19921;-82
2022/10/21 02:32:05;;;;;;;;;;;;;;;;;;5089398;28;19916;-83
2022/10/21 02:34:49;;;;;;;;;;;;;;;;;;5092492;28;19916;-78
2022/10/21 02:37:36;;;;;;;;;;;;;;;;;;5114341;28;19909;-94
2022/10/21 02:40:40;;;;;;;;;;;;;;;;;;5098809;28;19999;-86
2022/10/21 02:43:45;;;;;;;;;;;;;;;;;;5085239;28;19917;-79
2022/10/21 02:46:36;;;;;;;;;;;;;;;;;;5092485;28;19905;-90
2022/10/21 02:49:02;;;;;;;;;;;;;;;;;;5099119;28;19973;-94
2022/10/21 02:51:27;;;;;;;;;;;;;;;;;;5081631;28;19917;-94
2022/10/21 02:53:53;;;;;;;;;;;;;;;;;;5111378;28;19911;-80
2022/10/21 02:56:18;;;;;;;;;;;;;;;;;;5092411;28;19911;-94
2022/10/21 02:58:43;;;;;;;;;;;;;;;;;;5114566;28;19968;-81
2022/10/21 03:01:08;;;;;;;;;;;;;;;;;;5106882;28;19925;-95
2022/10/21 03:03:34;;;;;;;;;;;;;;;;;;5097341;28;20032;-96
2022/10/21 03:05:59;;;;;;;;;;;;;;;;;;5097244;28;19982;-90
2022/10/21 03:08:25;;;;;;;;;;;;;;;;;;5082692;28;19935;-92
2022/10/21 03:10:50;;;;;;;;;;;;;;;;;;5084796;28;19916;-86
2022/10/21 03:13:15;;;;;;;;;;;;;;;;;;5084981;28;19924;-88
2022/10/21 03:15:40;;;;;;;;;;;;;;;;;;5083924;28;19923;-82
2022/10/21 03:18:06;;;;;;;;;;;;;;;;;;5084342;28;19923;-84
2022/10/21 03:20:31;;;;;;;;;;;;;;;;;;5082357;28;20513;-86
2022/10/21 03:22:56;;;;;;;;;;;;;;;;;;5078877;28;19924;-89
2022/10/21 03:25:21;;;;;;;;;;;;;;;;;;5082439;28;20263;-85
2022/10/21 03:27:48;;;;;;;;;;;;;;;;;;5099852;28;21966;-85
2022/10/21 03:30:13;;;;;;;;;;;;;;;;;;5080258;28;19944;-87
2022/10/21 03:32:39;;;;;;;;;;;;;;;;;;5079712;28;19963;-87
2022/10/21 03:35:04;;;;;;;;;;;;;;;;;;5080625;28;19921;-88
2022/10/21 03:37:30;;;;;;;;;;;;;;;;;;5082689;28;19947;-85
2022/10/21 03:39:55;;;;;;;;;;;;;;;;;;5081595;28;19931;-85
2022/10/21 03:42:20;;;;;;;;;;;;;;;;;;5084433;28;19917;-81
2022/10/21 03:44:45;;;;;;;;;;;;;;;;;;5090488;28;19945;-89
2022/10/21 03:47:10;;;;;;;;;;;;;;;;;;5069127;28;19920;-89
2022/10/21 03:49:36;;;;;;;;;;;;;;;;;;5081335;28;19958;-88
2022/10/21 03:52:01;;;;;;;;;;;;;;;;;;5063755;28;20299;-87
2022/10/21 03:54:26;;;;;;;;;;;;;;;;;;5076263;28;19913;-85
2022/10/21 03:56:52;;;;;;;;;;;;;;;;;;5078653;28;20240;-86
2022/10/21 03:59:17;;;;;;;;;;;;;;;;;;5071654;28;19988;-84
2022/10/21 04:01:42;;;;;;;;;;;;;;;;;;5070523;28;19916;-88
2022/10/21 04:04:08;;;;;;;;;;;;;;;;;;5068821;28;20113;-91
2022/10/21 04:06:33;;;;;;;;;;;;;;;;;;5071499;28;19987;-93
2022/10/21 04:08:58;;;;;;;;;;;;;;;;;;5085303;28;19920;-88
2022/10/21 04:11:23;;;;;;;;;;;;;;;;;;5079798;28;19913;-93
2022/10/21 04:13:49;;;;;;;;;;;;;;;;;;5074849;28;19916;-93
2022/10/21 04:16:15;;;;;;;;;;;;;;;;;;5073299;28;19954;-82
2022/10/21 04:18:41;;;;;;;;;;;;;;;;;;5072419;28;19955;-82
2022/10/21 04:21:07;;;;;;;;;;;;;;;;;;5072280;28;19916;-88
2022/10/21 04:23:32;;;;;;;;;;;;;;;;;;5072542;28;19959;-79
2022/10/21 04:26:01;;;;;;;;;;;;;;;;;;5076659;28;20143;-89
2022/10/21 04:28:26;;;;;;;;;;;;;;;;;;5088582;28;19921;-90
2022/10/21 04:30:52;;;;;;;;;;;;;;;;;;5049603;28;20105;-88
2022/10/21 04:33:17;;;;;;;;;;;;;;;;;;5063073;28;19927;-90
2022/10/21 04:35:42;;;;;;;;;;;;;;;;;;5072489;28;19955;-93
2022/10/21 04:38:08;;;;;;;;;;;;;;;;;;5103128;28;19940;-93
2022/10/21 04:40:33;;;;;;;;;;;;;;;;;;5080421;28;19927;-95
2022/10/21 04:42:58;;;;;;;;;;;;;;;;;;5091589;28;19916;-96
2022/10/21 04:45:23;;;;;;;;;;;;;;;;;;5083460;28;19916;-95
2022/10/21 04:47:49;;;;;;;;;;;;;;;;;;5075503;28;19963;-94
2022/10/21 04:50:14;;;;;;;;;;;;;;;;;;5070591;28;19920;-94
2022/10/21 04:52:39;;;;;;;;;;;;;;;;;;5083314;28;19921;-95
2022/10/21 04:55:05;;;;;;;;;;;;;;;;;;5078445;28;20008;-95
2022/10/21 04:57:30;;;;;;;;;;;;;;;;;;5084155;28;20165;-89
2022/10/21 04:59:55;;;;;;;;;;;;;;;;;;5058316;28;19924;-95
2022/10/21 05:02:21;;;;;;;;;;;;;;;;;;5070958;28;19913;-93
2022/10/21 05:04:47;;;;;;;;;;;;;;;;;;5072862;28;19944;-93
2022/10/21 05:07:12;;;;;;;;;;;;;;;;;;5069427;28;19971;-90
2022/10/21 05:09:37;;;;;;;;;;;;;;;;;;5080688;28;19912;-93
2022/10/21 05:12:02;;;;;;;;;;;;;;;;;;5084014;28;19924;-91
2022/10/21 05:14:28;;;;;;;;;;;;;;;;;;5071651;28;19917;-92
2022/10/21 05:16:53;;;;;;;;;;;;;;;;;;5080315;28;19917;-95
2022/10/21 05:19:18;;;;;;;;;;;;;;;;;;5079980;28;19917;-96
2022/10/21 05:21:45;;;;;;;;;;;;;;;;;;5068721;28;19909;-80
2022/10/21 05:24:11;;;;;;;;;;;;;;;;;;5089999;28;19904;-80
2022/10/21 05:26:36;;;;;;;;;;;;;;;;;;5100461;28;19912;-96
2022/10/21 05:29:01;;;;;;;;;;;;;;;;;;5082086;28;19971;-96
2022/10/21 05:31:27;;;;;;;;;;;;;;;;;;5094960;28;19916;-95
2022/10/21 05:33:52;;;;;;;;;;;;;;;;;;5077775;28;19923;-95
2022/10/21 05:36:17;;;;;;;;;;;;;;;;;;5095414;28;19912;-93
2022/10/21 05:38:42;;;;;;;;;;;;;;;;;;5076448;28;20105;-94
2022/10/21 05:41:09;;;;;;;;;;;;;;;;;;5072248;28;19955;-94
2022/10/21 05:43:35;;;;;;;;;;;;;;;;;;5086857;28;20447;-95
2022/10/21 05:46:00;;;;;;;;;;;;;;;;;;5074950;28;19962;-95
2022/10/21 05:48:25;;;;;;;;;;;;;;;;;;5089555;28;19948;-95
2022/10/21 05:50:52;;;;;;;;;;;;;;;;;;5080488;28;19959;-95
2022/10/21 05:53:17;;;;;;;;;;;;;;;;;;5076064;28;19923;-95
2022/10/21 05:55:42;;;;;;;;;;;;;;;;;;5082052;28;19912;-86
2022/10/21 05:58:08;;;;;;;;;;;;;;;;;;5066439;28;20081;-89
2022/10/21 06:00:33;;;;;;;;;;;;;;;;;;5078654;28;19916;-86
2022/10/21 06:02:59;;;;;;;;;;;;;;;;;;5073383;28;19980;-78
2022/10/21 06:05:24;;;;;;;;;;;;;;;;;;5080145;28;19901;-78
2022/10/21 06:07:49;;;;;;;;;;;;;;;;;;5084916;28;19921;-95
2022/10/21 06:10:15;;;;;;;;;;;;;;;;;;5087492;28;19923;-93
2022/10/21 06:12:40;;;;;;;;;;;;;;;;;;5093265;28;20112;-82
2022/10/21 06:15:06;;;;;;;;;;;;;;;;;;5079812;28;20113;-96
2022/10/21 06:17:31;;;;;;;;;;;;;;;;;;5088877;28;19922;-90
2022/10/21 06:19:56;;;;;;;;;;;;;;;;;;5074168;28;20042;-87
2022/10/21 06:22:22;;;;;;;;;;;;;;;;;;5069195;28;19908;-86
2022/10/21 06:24:48;;;;;;;;;;;;;;;;;;5077349;28;19936;-87
2022/10/21 06:27:14;;;;;;;;;;;;;;;;;;5078461;28;19954;-82
2022/10/21 06:29:39;;;;;;;;;;;;;;;;;;5058354;28;19913;-86
2022/10/21 06:32:04;;;;;;;;;;;;;;;;;;5082316;28;20135;-92
2022/10/21 06:34:29;;;;;;;;;;;;;;;;;;5076137;28;19955;-85
2022/10/21 06:36:55;;;;;;;;;;;;;;;;;;5080796;28;19924;-84
2022/10/21 06:39:20;;;;;;;;;;;;;;;;;;5079412;28;20052;-82
2022/10/21 06:41:45;;;;;;;;;;;;;;;;;;5073270;28;19940;-93
2022/10/21 06:44:11;;;;;;;;;;;;;;;;;;5083819;28;19916;-83
2022/10/21 06:46:36;;;;;;;;;;;;;;;;;;5082822;28;19923;-91
2022/10/21 06:49:01;;;;;;;;;;;;;;;;;;5081865;28;19979;-90
2022/10/21 06:51:28;;;;;;;;;;;;;;;;;;5074572;28;19917;-94
2022/10/21 06:53:59;;;;;;;;;;;;;;;;;;5078470;28;19924;-89
2022/10/21 06:56:27;;;;;;;;;;;;;;;;;;5078792;28;19918;-87
2022/10/21 06:58:54;;;;;;;;;;;;;;;;;;5067182;28;19916;-84
2022/10/21 07:01:21;;;;;;;;;;;;;;;;;;5050520;28;19913;-85
2022/10/21 07:03:47;;;;;;;;;;;;;;;;;;5064437;28;19916;-88
2022/10/21 07:06:12;;;;;;;;;;;;;;;;;;5070637;28;19966;-83
2022/10/21 07:08:38;;;;;;;;;;;;;;;;;;5057864;28;19920;-90
2022/10/21 07:11:04;;;;;;;;;;;;;;;;;;5070278;28;19920;-88
2022/10/21 07:13:29;;;;;;;;;;;;;;;;;;5069638;28;19921;-88
2022/10/21 07:16:01;;;;;;;;;;;;;;;;;;5070881;28;19913;-86
2022/10/21 07:18:27;;;;;;;;;;;;;;;;;;5066005;28;19916;-87
2022/10/21 07:20:52;;;;;;;;;;;;;;;;;;5069577;28;19920;-88
2022/10/21 07:23:18;;;;;;;;;;;;;;;;;;5074340;28;19916;-86
2022/10/21 07:25:43;;;;;;;;;;;;;;;;;;5050756;28;19983;-83
2022/10/21 07:28:08;;;;;;;;;;;;;;;;;;5074786;28;20109;-84
2022/10/21 07:30:41;;;;;;;;;;;;;;;;;;5082569;28;19951;-85
2022/10/21 07:33:06;;;;;;;;;;;;;;;;;;5073943;28;19913;-85
2022/10/21 07:35:31;;;;;;;;;;;;;;;;;;5072125;28;19955;-86
2022/10/21 07:37:57;;;;;;;;;;;;;;;;;;5054996;28;19955;-81
2022/10/21 07:40:22;;;;;;;;;;;;;;;;;;5073543;28;20273;-88
2022/10/21 07:42:47;;;;;;;;;;;;;;;;;;5059642;28;19950;-88
2022/10/21 07:45:13;;;;;;;;;;;;;;;;;;5075180;28;19924;-91
2022/10/21 07:47:38;;;;;;;;;;;;;;;;;;5091786;28;19939;-92
2022/10/21 07:50:03;;;;;;;;;;;;;;;;;;5082906;28;19978;-89
2022/10/21 07:52:28;;;;;;;;;;;;;;;;;;5084882;28;19942;-94
2022/10/21 07:54:54;;;;;;;;;;;;;;;;;;5111753;28;19912;-96
2022/10/21 07:57:19;;;;;;;;;;;;;;;;;;5082887;28;19927;-82
2022/10/21 07:59:44;;;;;;;;;;;;;;;;;;5103649;28;19922;-92
2022/10/21 08:02:12;;;;;;;;;;;;;;;;;;5072979;28;19940;-93
2022/10/21 08:04:38;;;;;;;;;;;;;;;;;;5074387;28;19937;-83
2022/10/21 08:07:03;;;;;;;;;;;;;;;;;;5073681;28;20188;-91
2022/10/21 08:09:29;;;;;;;;;;;;;;;;;;5079625;28;19928;-93
2022/10/21 08:11:54;;;;;;;;;;;;;;;;;;5087974;28;19916;-96
2022/10/21 08:14:19;;;;;;;;;;;;;;;;;;5111807;28;19919;-94
2022/10/21 08:16:45;;;;;;;;;;;;;;;;;;5083033;28;20193;-92
2022/10/21 08:19:15;;;;;;;;;;;;;;;;;;5077136;28;19912;-96
2022/10/21 08:21:41;;;;;;;;;;;;;;;;;;5079202;28;20197;-96
2022/10/21 08:24:06;;;;;;;;;;;;;;;;;;5096810;28;19923;-96
2022/10/21 08:26:31;;;;;;;;;;;;;;;;;;5081856;28;19912;-94
2022/10/21 08:28:56;;;;;;;;;;;;;;;;;;5079150;28;20089;-95
2022/10/21 08:31:22;;;;;;;;;;;;;;;;;;5074982;28;19923;-93
2022/10/21 08:33:48;;;;;;;;;;;;;;;;;;5081893;28;19913;-93
2022/10/21 08:36:14;;;;;;;;;;;;;;;;;;5085062;28;19920;-91
2022/10/21 08:38:40;;;;;;;;;;;;;;;;;;5065978;28;20277;-92
2022/10/21 08:41:23;;;;;;;;;;;;;;;;;;5086403;28;20231;-89
2022/10/21 08:43:51;;;;;;;;;;;;;;;;;;5083492;28;19934;-87
2022/10/21 08:46:18;;;;;;;;;;;;;;;;;;5074681;28;19920;-84
2022/10/21 08:48:49;;;;;;;;;;;;;;;;;;5083175;28;19912;-89
2022/10/21 08:51:21;;;;;;;;;;;;;;;;;;5090477;28;20002;-88
2022/10/21 08:53:47;;;;;;;;;;;;;;;;;;5077024;28;20229;-86
2022/10/21 08:56:13;;;;;;;;;;;;;;;;;;5083004;28;19935;-90
2022/10/21 08:58:38;;;;;;;;;;;;;;;;;;5082156;28;19924;-90
2022/10/21 09:01:22;;;;;;;;;;;;;;;;;;5074552;28;19999;-88
2022/10/21 09:04:06;;;;;;;;;;;;;;;;;;5070787;28;19994;-89
2022/10/21 09:06:50;;;;;;;;;;;;;;;;;;5072987;28;19912;-89
2022/10/21 09:09:15;;;;;;;;;;;;;;;;;;5076635;28;19920;-85
2022/10/21 09:11:43;;;;;;;;;;;;;;;;;;5057311;28;19939;-95
2022/10/21 09:14:17;;;;;;;;;;;;;;;;;;5077637;28;19972;-88
2022/10/21 09:16:55;;;;;;;;;;;;;;;;;;5062000;28;19920;-86
2022/10/21 09:19:26;;;;;;;;;;;;;;;;;;5078594;28;19920;-88
2022/10/21 09:22:00;;;;;;;;;;;;;;;;;;5079693;28;19919;-87
2022/10/21 09:24:55;;;;;;;;;;;;;;;;;;5088184;28;20046;-88
2022/10/21 09:27:21;;;;;;;;;;;;;;;;;;5026970;28;19977;-85
2022/10/21 09:29:53;;;;;;;;;;;;;;;;;;5074565;28;19923;-90
2022/10/21 09:32:21;;;;;;;;;;;;;;;;;;5076240;28;19916;-86
2022/10/21 09:34:46;;;;;;;;;;;;;;;;;;5073458;28;19930;-88
2022/10/21 09:37:23;;;;;;;;;;;;;;;;;;5085396;28;20220;-89
2022/10/21 09:39:52;;;;;;;;;;;;;;;;;;5080515;28;19956;-85
2022/10/21 09:42:18;;;;;;;;;;;;;;;;;;5078529;28;20126;-82
2022/10/21 09:44:44;;;;;;;;;;;;;;;;;;5080126;28;19912;-82
2022/10/21 09:47:20;;;;;;;;;;;;;;;;;;5079988;28;19958;-84
2022/10/21 09:49:47;;;;;;;;;;;;;;;;;;5079085;28;19949;-78
2022/10/21 09:52:13;;;;;;;;;;;;;;;;;;5076848;28;19987;-84
2022/10/21 09:54:40;;;;;;;;;;;;;;;;;;5086922;28;19951;-85
2022/10/21 09:57:08;;;;;;;;;;;;;;;;;;5060043;28;19951;-80
2022/10/21 09:59:36;;;;;;;;;;;;;;;;;;5080639;28;19921;-79
2022/10/21 10:02:12;;;;;;;;;;;;;;;;;;5076091;28;19912;-82
2022/10/21 10:04:37;;;;;;;;;;;;;;;;;;5081409;28;19995;-78
2022/10/21 10:07:18;;;;;;;;;;;;;;;;;;5090847;28;19917;-86
2022/10/21 10:09:44;;;;;;;;;;;;;;;;;;5079305;28;19920;-87
2022/10/21 10:12:14;;;;;;;;;;;;;;;;;;5078788;28;19916;-86
2022/10/21 10:14:41;;;;;;;;;;;;;;;;;;5076636;28;20110;-81
2022/10/21 10:17:24;;;;;;;;;;;;;;;;;;5079118;28;20023;-85
2022/10/21 10:20:16;;;;;;;;;;;;;;;;;;5078402;28;19973;-86
2022/10/21 10:22:42;;;;;;;;;;;;;;;;;;5058769;28;19934;-85
2022/10/21 10:25:10;;;;;;;;;;;;;;;;;;5085209;28;19915;-82
2022/10/21 10:27:45;;;;;;;;;;;;;;;;;;5075630;28;19952;-84
2022/10/21 10:30:12;;;;;;;;;;;;;;;;;;5092941;28;19908;-86
2022/10/21 10:32:38;;;;;;;;;;;;;;;;;;5075157;28;19923;-78
2022/10/21 10:35:06;;;;;;;;;;;;;;;;;;5072548;28;19992;-83
2022/10/21 10:37:33;;;;;;;;;;;;;;;;;;5071140;28;19920;-79
2022/10/21 10:39:59;;;;;;;;;;;;;;;;;;5055624;28;19920;-78
2022/10/21 10:42:33;;;;;;;;;;;;;;;;;;5091942;28;19919;-84
2022/10/21 10:45:00;;;;;;;;;;;;;;;;;;5079204;28;19924;-81
2022/10/21 10:47:30;;;;;;;;;;;;;;;;;;5079457;28;19946;-83
2022/10/21 10:49:55;;;;;;;;;;;;;;;;;;5078053;28;19920;-79
2022/10/21 10:52:23;;;;;;;;;;;;;;;;;;5080417;28;20193;-78
2022/10/21 10:55:08;;;;;;;;;;;;;;;;;;5062913;28;20011;-84
2022/10/21 10:57:33;;;;;;;;;;;;;;;;;;5076852;28;19931;-78
2022/10/21 11:00:03;;;;;;;;;;;;;;;;;;5080404;28;19938;-81
2022/10/21 11:02:28;;;;;;;;;;;;;;;;;;5082497;28;19920;-76
2022/10/21 11:05:00;;;;;;;;;;;;;;;;;;5073729;28;19975;-76
2022/10/21 11:07:28;;;;;;;;;;;;;;;;;;5066123;28;19916;-79
2022/10/21 11:09:57;;;;;;;;;;;;;;;;;;5076839;28;20284;-80
2022/10/21 11:12:25;;;;;;;;;;;;;;;;;;5073754;28;20266;-81
2022/10/21 11:14:52;;;;;;;;;;;;;;;;;;5077576;28;20345;-81
2022/10/21 11:17:18;;;;;;;;;;;;;;;;;;5075270;28;20152;-83
2022/10/21 11:20:01;;;;;;;;;;;;;;;;;;5085501;28;19920;-82
2022/10/21 11:22:52;;;;;;;;;;;;;;;;;;5079170;28;20220;-81
2022/10/21 11:25:26;;;;;;;;;;;;;;;;;;5072663;28;20193;-82
2022/10/21 11:28:06;;;;;;;;;;;;;;;;;;5076905;28;19984;-83
2022/10/21 11:30:38;;;;;;;;;;;;;;;;;;5084892;28;19919;-76
2022/10/21 11:33:16;;;;;;;;;;;;;;;;;;5075081;28;19938;-79
2022/10/21 11:35:49;;;;;;;;;;;;;;;;;;5076719;28;20158;-82
2022/10/21 11:38:32;;;;;;;;;;;;;;;;;;5072142;28;19917;-80
2022/10/21 11:41:05;;;;;;;;;;;;;;;;;;5072975;28;20196;-82
2022/10/21 11:43:37;;;;;;;;;;;;;;;;;;5076651;28;19924;-78
2022/10/21 11:46:10;;;;;;;;;;;;;;;;;;5080207;28;20244;-79
2022/10/21 11:48:56;;;;;;;;;;;;;;;;;;5080063;28;19958;-79
2022/10/21 11:51:21;;;;;;;;;;;;;;;;;;5082022;28;19923;-81
2022/10/21 11:53:59;;;;;;;;;;;;;;;;;;5079966;28;19916;-78
2022/10/21 11:56:38;;;;;;;;;;;;;;;;;;5077757;28;19983;-76
2022/10/21 11:59:04;;;;;;;;;;;;;;;;;;5083388;28;20073;-76
2022/10/21 12:01:48;;;;;;;;;;;;;;;;;;5083609;28;19919;-77
2022/10/21 12:04:23;;;;;;;;;;;;;;;;;;5068150;28;19931;-78
2022/10/21 12:06:54;;;;;;;;;;;;;;;;;;5067697;28;19912;-78
2022/10/21 12:09:29;;;;;;;;;;;;;;;;;;5079720;28;19920;-76
2022/10/21 12:12:08;;;;;;;;;;;;;;;;;;5077172;28;19916;-75
2022/10/21 12:14:35;;;;;;;;;;;;;;;;;;5074401;28;19924;-76
2022/10/21 12:17:04;;;;;;;;;;;;;;;;;;5072259;28;19923;-77
2022/10/21 12:19:29;;;;;;;;;;;;;;;;;;5074490;28;19917;-77
2022/10/21 12:21:55;;;;;;;;;;;;;;;;;;5078852;28;19975;-77
2022/10/21 12:24:29;;;;;;;;;;;;;;;;;;5081584;28;19944;-76
2022/10/21 12:27:07;;;;;;;;;;;;;;;;;;5073251;28;19917;-76
2022/10/21 12:29:32;;;;;;;;;;;;;;;;;;5075065;28;19923;-76
2022/10/21 12:32:05;;;;;;;;;;;;;;;;;;5082445;28;19917;-77
2022/10/21 12:34:30;;;;;;;;;;;;;;;;;;5078114;28;19928;-76
2022/10/21 12:36:55;;;;;;;;;;;;;;;;;;5076110;28;19990;-77
2022/10/21 12:39:32;;;;;;;;;;;;;;;;;;5078406;28;19924;-77
2022/10/21 12:42:04;;;;;;;;;;;;;;;;;;5079062;28;19925;-76
2022/10/21 12:44:29;;;;;;;;;;;;;;;;;;5086415;28;19928;-77
2022/10/21 12:46:56;;;;;;;;;;;;;;;;;;5084516;28;20139;-76
2022/10/21 12:49:31;;;;;;;;;;;;;;;;;;5079392;28;19929;-78
2022/10/21 12:52:09;;;;;;;;;;;;;;;;;;5078962;28;19947;-78
2022/10/21 12:54:53;;;;;;;;;;;;;;;;;;5071982;28;19921;-79
2022/10/21 12:57:22;;;;;;;;;;;;;;;;;;5079037;28;20228;-77
2022/10/21 12:59:48;;;;;;;;;;;;;;;;;;5075625;28;19975;-77
2022/10/21 13:02:21;;;;;;;;;;;;;;;;;;5074534;28;19915;-77
2022/10/21 13:04:48;;;;;;;;;;;;;;;;;;5070467;28;20205;-76
2022/10/21 13:07:13;;;;;;;;;;;;;;;;;;5071410;28;19940;-77
2022/10/21 13:10:03;;;;;;;;;;;;;;;;;;5076949;28;19924;-77
2022/10/21 13:12:30;;;;;;;;;;;;;;;;;;5075770;28;19931;-76
2022/10/21 13:15:05;;;;;;;;;;;;;;;;;;5083741;28;19921;-77
2022/10/21 13:17:48;;;;;;;;;;;;;;;;;;5077099;28;19916;-76
2022/10/21 13:20:13;;;;;;;;;;;;;;;;;;5060493;28;19935;-77
2022/10/21 13:22:40;;;;;;;;;;;;;;;;;;5094125;28;20131;-77
2022/10/21 13:25:08;;;;;;;;;;;;;;;;;;5081561;28;20247;-77
2022/10/21 13:27:33;;;;;;;;;;;;;;;;;;5080278;28;19983;-77
2022/10/21 13:29:59;;;;;;;;;;;;;;;;;;5057333;28;19927;-77
2022/10/21 13:32:26;;;;;;;;;;;;;;;;;;5072380;28;19959;-76
2022/10/21 13:34:57;;;;;;;;;;;;;;;;;;5076229;28;20179;-77
2022/10/21 13:37:37;;;;;;;;;;;;;;;;;;5073782;28;19912;-77
2022/10/21 13:40:12;;;;;;;;;;;;;;;;;;5084245;28;19920;-77
2022/10/21 13:42:39;;;;;;;;;;;;;;;;;;5075107;28;19990;-77
2022/10/21 13:45:16;;;;;;;;;;;;;;;;;;5081131;28;20191;-77
2022/10/21 13:47:42;;;;;;;;;;;;;;;;;;5078984;28;19920;-77
2022/10/21 13:50:24;;;;;;;;;;;;;;;;;;5062789;28;19951;-77
2022/10/21 13:52:52;;;;;;;;;;;;;;;;;;5065622;28;19987;-77
2022/10/21 13:55:20;;;;;;;;;;;;;;;;;;5078193;28;19908;-77
2022/10/21 13:57:46;;;;;;;;;;;;;;;;;;5072614;28;19916;-77
2022/10/21 14:00:22;;;;;;;;;;;;;;;;;;5077582;28;19931;-77
2022/10/21 14:02:49;;;;;;;;;;;;;;;;;;5078447;28;20211;-77
2022/10/21 14:05:27;;;;;;;;;;;;;;;;;;5075205;28;19916;-76
2022/10/21 14:07:52;;;;;;;;;;;;;;;;;;5088225;28;19987;-77
2022/10/21 14:10:18;;;;;;;;;;;;;;;;;;5073804;28;19928;-77
2022/10/21 14:12:43;;;;;;;;;;;;;;;;;;5075054;28;19954;-77
2022/10/21 14:15:14;;;;;;;;;;;;;;;;;;5086650;28;19988;-78
2022/10/21 14:17:41;;;;;;;;;;;;;;;;;;5075119;28;20103;-77
2022/10/21 14:20:12;;;;;;;;;;;;;;;;;;5078254;28;19913;-77
2022/10/21 14:22:38;;;;;;;;;;;;;;;;;;5078863;28;19913;-78
2022/10/21 14:25:03;;;;;;;;;;;;;;;;;;5078723;28;19916;-77
2022/10/21 14:27:29;;;;;;;;;;;;;;;;;;5080473;28;19944;-76
2022/10/21 14:29:55;;;;;;;;;;;;;;;;;;5078811;28;19954;-83
2022/10/21 14:32:22;;;;;;;;;;;;;;;;;;5062239;28;19917;-81
2022/10/21 14:35:03;;;;;;;;;;;;;;;;;;5064687;28;19959;-83
2022/10/21 14:37:43;;;;;;;;;;;;;;;;;;5065812;28;19952;-87
2022/10/21 14:40:10;;;;;;;;;;;;;;;;;;5087128;28;20071;-90
2022/10/21 14:42:38;;;;;;;;;;;;;;;;;;5056730;28;19931;-82
2022/10/21 14:45:03;;;;;;;;;;;;;;;;;;5076346;28;19920;-86
2022/10/21 14:47:29;;;;;;;;;;;;;;;;;;5063182;28;19920;-89
2022/10/21 14:49:55;;;;;;;;;;;;;;;;;;5060965;28;19970;-86
2022/10/21 14:52:23;;;;;;;;;;;;;;;;;;5080075;28;20215;-85
2022/10/21 14:54:53;;;;;;;;;;;;;;;;;;5084066;28;19916;-83
2022/10/21 14:57:18;;;;;;;;;;;;;;;;;;5082070;28;19938;-80
2022/10/21 14:59:44;;;;;;;;;;;;;;;;;;5081264;28;19928;-79
2022/10/21 15:02:16;;;;;;;;;;;;;;;;;;5083658;28;19923;-77
2022/10/21 15:04:50;;;;;;;;;;;;;;;;;;5087649;28;19919;-77
2022/10/21 15:07:24;;;;;;;;;;;;;;;;;;5081598;28;20033;-77
2022/10/21 15:10:16;;;;;;;;;;;;;;;;;;5089591;28;20231;-76
2022/10/21 15:12:49;;;;;;;;;;;;;;;;;;5081614;28;19916;-77
2022/10/21 15:15:34;;;;;;;;;;;;;;;;;;5086333;28;19920;-77
2022/10/21 15:18:00;;;;;;;;;;;;;;;;;;5080433;28;19955;-76
2022/10/21 15:20:29;;;;;;;;;;;;;;;;;;5086243;28;19978;-77
2022/10/21 15:22:55;;;;;;;;;;;;;;;;;;5093769;28;19923;-77
2022/10/21 15:25:22;;;;;;;;;;;;;;;;;;5063907;28;20200;-77
2022/10/21 15:27:48;;;;;;;;;;;;;;;;;;5084311;28;19951;-77
2022/10/21 15:30:18;;;;;;;;;;;;;;;;;;5068481;28;19917;-77
2022/10/21 15:32:43;;;;;;;;;;;;;;;;;;5082472;28;19923;-77
2022/10/21 15:35:12;;;;;;;;;;;;;;;;;;5087128;28;20069;-78
2022/10/21 15:37:37;;;;;;;;;;;;;;;;;;5085971;28;19966;-77
2022/10/21 15:40:03;;;;;;;;;;;;;;;;;;5081422;28;19920;-77
2022/10/21 15:42:28;;;;;;;;;;;;;;;;;;5083531;28;19952;-77
2022/10/21 15:44:53;;;;;;;;;;;;;;;;;;5089737;28;19928;-77
2022/10/21 15:47:19;;;;;;;;;;;;;;;;;;5078789;28;19984;-77
2022/10/21 15:49:45;;;;;;;;;;;;;;;;;;5085143;28;20259;-77
2022/10/21 15:52:11;;;;;;;;;;;;;;;;;;5079477;28;19913;-77
2022/10/21 15:54:37;;;;;;;;;;;;;;;;;;5086356;28;20104;-77
2022/10/21 15:57:11;;;;;;;;;;;;;;;;;;5078499;28;19939;-77
2022/10/21 15:59:36;;;;;;;;;;;;;;;;;;5084437;28;20042;-77
2022/10/21 16:02:01;;;;;;;;;;;;;;;;;;5086836;28;19917;-77
2022/10/21 16:04:27;;;;;;;;;;;;;;;;;;5085583;28;19931;-77
2022/10/21 16:06:53;;;;;;;;;;;;;;;;;;5081508;28;19933;-77
2022/10/21 16:09:19;;;;;;;;;;;;;;;;;;5087193;28;19932;-77
2022/10/21 16:11:46;;;;;;;;;;;;;;;;;;5077607;28;19947;-78
2022/10/21 16:14:13;;;;;;;;;;;;;;;;;;5073660;28;20201;-76
2022/10/21 16:16:41;;;;;;;;;;;;;;;;;;5075355;28;19990;-77
2022/10/21 16:19:07;;;;;;;;;;;;;;;;;;5061783;28;19924;-76
2022/10/21 16:21:33;;;;;;;;;;;;;;;;;;5088237;28;20209;-78
2022/10/21 16:24:01;;;;;;;;;;;;;;;;;;5079381;28;19923;-77
2022/10/21 16:26:31;;;;;;;;;;;;;;;;;;5086861;28;20220;-77
2022/10/21 16:28:57;;;;;;;;;;;;;;;;;;5073907;28;19943;-77
2022/10/21 16:31:25;;;;;;;;;;;;;;;;;;5076681;28;20106;-77
2022/10/21 16:33:50;;;;;;;;;;;;;;;;;;5078988;28;20097;-77
2022/10/21 16:36:15;;;;;;;;;;;;;;;;;;5075928;28;19912;-77
2022/10/21 16:38:42;;;;;;;;;;;;;;;;;;5072252;28;19999;-77
2022/10/21 16:41:15;;;;;;;;;;;;;;;;;;5083482;28;19945;-77
2022/10/21 16:43:41;;;;;;;;;;;;;;;;;;5081616;28;19920;-77
2022/10/21 16:46:25;;;;;;;;;;;;;;;;;;5081551;28;19925;-78
2022/10/21 16:48:51;;;;;;;;;;;;;;;;;;5040305;28;19927;-77
2022/10/21 16:51:16;;;;;;;;;;;;;;;;;;5059214;28;20152;-77
2022/10/21 16:53:41;;;;;;;;;;;;;;;;;;5056652;28;19951;-77
2022/10/21 16:56:07;;;;;;;;;;;;;;;;;;5056326;28;19921;-77
2022/10/21 16:58:32;;;;;;;;;;;;;;;;;;5068805;28;19938;-77